createdAt,value
2022-10-21T00:04:11.242Z,26.43
2022-10-21T00:06:37.815Z,24.33
2022-10-21T00:09:04.481Z,26.93
2022-10-21T00:11:31.089Z,24.13
2022-10-21T00:13:57.657Z,28.23
2022-10-21T00:16:24.234Z,24.57
2022-10-21T00:18:50.774Z,22.43
2022-10-21T00:21:19.810Z,28.10
2022-10-21T00:23:47.521Z,21.57
2022-10-21T00:26:15.158Z,22.70
2022-10-21T00:28:42.421Z,20.93
2022-10-21T00:31:11.247Z,22.93
2022-10-21T00:33:38.049Z,20.20
2022-10-21T00:36:07.126Z,17.57
2022-10-21T00:38:35.105Z,17.80
2022-10-21T00:41:02.594Z,17.37
2022-10-21T00:43:29.362Z,16.50
2022-10-21T00:46:02.581Z,19.77
2022-10-21T00:48:35.823Z,14.33
2022-10-21T00:51:14.266Z,14.37
2022-10-21T00:53:44.414Z,13.53
2022-10-21T00:56:16.823Z,16.87
2022-10-21T00:58:46.938Z,14.03
2022-10-21T01:01:17.891Z,12.53
2022-10-21T01:03:47.259Z,13.93
2022-10-21T01:06:15.475Z,20.47
2022-10-21T01:08:42.229Z,15.23
2022-10-21T01:11:14.330Z,12.90
2022-10-21T01:14:24.750Z,16.47
2022-10-21T01:17:26.433Z,10.50
2022-10-21T01:20:22.485Z,11.50
2022-10-21T01:23:17.462Z,15.97
2022-10-21T01:25:55.809Z,16.90
2022-10-21T01:28:49.647Z,12.20
2022-10-21T01:31:25.515Z,11.77
2022-10-21T01:34:13.682Z,9.77
2022-10-21T01:36:49.162Z,10.97
2022-10-21T01:39:27.365Z,12.23
2022-10-21T01:42:25.236Z,13.47
2022-10-21T01:45:09.979Z,13.50
2022-10-21T01:47:39.713Z,11.60
2022-10-21T01:50:16.962Z,12.50
2022-10-21T01:52:47.928Z,12.83
2022-10-21T01:55:19.330Z,14.93
2022-10-21T01:57:51.564Z,14.57
2022-10-21T02:00:18.539Z,13.80
2022-10-21T02:02:48.903Z,12.13
2022-10-21T02:05:25.662Z,11.20
2022-10-21T02:07:52.283Z,13.83
2022-10-21T02:10:19.916Z,11.70
2022-10-21T02:12:49.103Z,12.50
2022-10-21T02:15:18.089Z,9.70
2022-10-21T02:18:01.748Z,12.90
2022-10-21T02:20:31.865Z,12.67
2022-10-21T02:22:58.849Z,8.73
2022-10-21T02:25:32.728Z,11.17
2022-10-21T02:27:59.449Z,8.93
2022-10-21T02:30:30.276Z,8.30
2022-10-21T02:33:04.160Z,8.20
2022-10-21T02:35:51.871Z,9.83
2022-10-21T02:38:40.260Z,10.80
2022-10-21T02:41:11.515Z,14.07
2022-10-21T02:43:48.882Z,15.50
2022-10-21T02:46:15.955Z,16.33
2022-10-21T02:48:47.916Z,17.60
2022-10-21T02:51:15.782Z,11.43
2022-10-21T02:53:42.982Z,12.10
2022-10-21T02:56:09.566Z,12.97
2022-10-21T02:58:36.459Z,16.03
2022-10-21T03:01:03.277Z,16.03
2022-10-21T03:03:30.039Z,9.97
2022-10-21T03:05:57.396Z,12.37
2022-10-21T03:08:23.998Z,12.27
2022-10-21T03:10:53.132Z,13.93
2022-10-21T03:13:20.993Z,15.93
2022-10-21T03:15:49.204Z,12.77
2022-10-21T03:18:16.366Z,13.27
2022-10-21T03:20:42.977Z,10.93
2022-10-21T03:23:09.551Z,16.10
2022-10-21T03:25:36.198Z,15.10
2022-10-21T03:28:03.139Z,11.07
2022-10-21T03:30:29.737Z,12.30
2022-10-21T03:32:56.303Z,14.80
2022-10-21T03:35:22.858Z,16.50
2022-10-21T03:37:49.462Z,10.03
2022-10-21T03:40:16.073Z,13.93
2022-10-21T03:42:42.624Z,10.80
2022-10-21T03:45:09.729Z,20.67
2022-10-21T03:47:36.397Z,13.07
2022-10-21T03:50:05.419Z,12.13
2022-10-21T03:52:34.135Z,9.40
2022-10-21T03:55:00.931Z,9.97
2022-10-21T03:57:27.488Z,15.33
2022-10-21T03:59:54.018Z,11.90
2022-10-21T04:02:20.559Z,13.23
2022-10-21T04:04:47.138Z,13.10
2022-10-21T04:07:13.733Z,10.60
2022-10-21T04:09:40.278Z,12.47
2022-10-21T04:12:06.835Z,16.57
2022-10-21T04:14:33.658Z,10.13
2022-10-21T04:17:06.758Z,16.13
2022-10-21T04:19:33.867Z,8.83
2022-10-21T04:22:00.413Z,14.47
2022-10-21T04:24:26.941Z,18.60
2022-10-21T04:26:53.519Z,11.03
2022-10-21T04:29:20.117Z,12.73
2022-10-21T04:31:46.710Z,10.50
2022-10-21T04:34:13.418Z,8.33
2022-10-21T04:36:39.962Z,8.97
2022-10-21T04:39:06.861Z,11.60
2022-10-21T04:41:33.647Z,12.73
2022-10-21T04:44:02.441Z,7.20
2022-10-21T04:46:28.993Z,15.00
2022-10-21T04:48:55.536Z,11.33
2022-10-21T04:51:22.146Z,7.47
2022-10-21T04:53:48.775Z,11.10
2022-10-21T04:56:15.316Z,15.43
2022-10-21T04:58:41.881Z,12.37
2022-10-21T05:01:08.780Z,13.27
2022-10-21T05:03:35.397Z,9.57
2022-10-21T05:06:02.113Z,11.57
2022-10-21T05:08:28.805Z,10.77
2022-10-21T05:11:02.865Z,10.90
2022-10-21T05:13:30.190Z,9.60
2022-10-21T05:16:01.358Z,12.43
2022-10-21T05:18:28.358Z,10.00
2022-10-21T05:20:55.812Z,8.50
2022-10-21T05:23:22.914Z,14.33
2022-10-21T05:25:51.614Z,8.47
2022-10-21T05:28:18.830Z,11.20
2022-10-21T05:30:45.584Z,12.97
2022-10-21T05:33:12.183Z,9.37
2022-10-21T05:35:38.993Z,13.97
2022-10-21T05:38:05.696Z,11.20
2022-10-21T05:40:33.191Z,10.27
2022-10-21T05:43:00.018Z,9.73
2022-10-21T05:45:27.033Z,8.87
2022-10-21T05:47:53.609Z,10.93
2022-10-21T05:50:20.326Z,13.27
2022-10-21T05:52:46.896Z,10.67
2022-10-21T05:55:13.547Z,8.80
2022-10-21T05:57:40.243Z,12.40
2022-10-21T06:00:07.847Z,13.40
2022-10-21T06:02:34.452Z,13.43
2022-10-21T06:05:01.074Z,11.07
2022-10-21T06:07:27.724Z,11.47
2022-10-21T06:09:54.956Z,11.07
2022-10-21T06:12:22.361Z,15.97
2022-10-21T06:14:48.912Z,14.80
2022-10-21T06:17:15.479Z,15.83
2022-10-21T06:19:44.845Z,18.10
2022-10-21T06:22:14.539Z,10.77
2022-10-21T06:24:41.084Z,19.97
2022-10-21T06:27:08.540Z,11.23
2022-10-21T06:29:35.133Z,11.63
2022-10-21T06:32:01.859Z,11.90
2022-10-21T06:34:28.731Z,12.97
2022-10-21T06:36:55.254Z,10.67
2022-10-21T06:39:21.937Z,14.13
2022-10-21T06:41:48.471Z,15.90
2022-10-21T06:44:15.236Z,18.17
2022-10-21T06:46:41.946Z,8.57
2022-10-21T06:49:08.483Z,10.73
2022-10-21T06:51:35.029Z,10.77
2022-10-21T06:54:01.662Z,8.93
2022-10-21T06:56:28.350Z,9.63
2022-10-21T06:58:57.615Z,13.73
2022-10-21T07:01:40.874Z,11.23
2022-10-21T07:04:08.747Z,9.30
2022-10-21T07:06:35.635Z,8.93
2022-10-21T07:09:03.708Z,17.10
2022-10-21T07:11:30.336Z,13.67
2022-10-21T07:13:56.926Z,12.73
2022-10-21T07:16:28.960Z,12.63
2022-10-21T07:18:56.125Z,10.13
2022-10-21T07:21:26.223Z,9.47
2022-10-21T07:23:56.571Z,14.17
2022-10-21T07:26:27.273Z,9.53
2022-10-21T07:28:58.103Z,12.90
2022-10-21T07:31:24.679Z,13.07
2022-10-21T07:33:52.042Z,13.10
2022-10-21T07:36:24.580Z,11.63
2022-10-21T07:38:52.961Z,12.43
2022-10-21T07:41:41.021Z,11.30
2022-10-21T07:44:08.229Z,14.03
2022-10-21T07:46:35.141Z,18.03
2022-10-21T07:49:01.699Z,10.90
2022-10-21T07:51:30.269Z,11.50
2022-10-21T07:53:59.369Z,16.50
2022-10-21T07:56:32.004Z,15.53
2022-10-21T07:58:59.184Z,9.57
2022-10-21T08:01:25.934Z,8.43
2022-10-21T08:03:54.334Z,5.97
2022-10-21T08:06:22.144Z,9.23
2022-10-21T08:08:48.783Z,11.87
2022-10-21T08:11:27.100Z,12.20
2022-10-21T08:13:54.544Z,11.37
2022-10-21T08:16:21.742Z,14.03
2022-10-21T08:18:48.725Z,11.40
2022-10-21T08:21:15.637Z,9.10
2022-10-21T08:23:42.485Z,8.13
2022-10-21T08:26:15.413Z,8.90
2022-10-21T08:28:42.837Z,8.37
2022-10-21T08:31:12.887Z,7.50
2022-10-21T08:33:40.506Z,11.67
2022-10-21T08:36:09.049Z,10.97
2022-10-21T08:38:36.138Z,6.87
2022-10-21T08:41:22.628Z,10.37
2022-10-21T08:43:51.005Z,10.70
2022-10-21T08:46:22.718Z,8.87
2022-10-21T08:49:00.302Z,10.27
2022-10-21T08:51:41.328Z,11.63
2022-10-21T08:54:18.178Z,6.50
2022-10-21T08:56:48.268Z,11.00
2022-10-21T08:59:24.784Z,12.43
2022-10-21T09:02:05.898Z,13.07
2022-10-21T09:04:47.394Z,6.47
2022-10-21T09:07:23.261Z,13.23
2022-10-21T09:10:03.054Z,7.10
2022-10-21T09:12:49.041Z,7.03
2022-10-21T09:15:27.173Z,9.40
2022-10-21T09:18:30.297Z,4.53
2022-10-21T09:21:22.727Z,6.63
2022-10-21T09:24:18.912Z,7.80
2022-10-21T09:26:49.134Z,8.50
2022-10-21T09:29:23.683Z,6.97
2022-10-21T09:31:56.068Z,3.07
2022-10-21T09:34:42.708Z,3.20
2022-10-21T09:37:36.251Z,3.83
2022-10-21T09:40:23.884Z,11.57
2022-10-21T09:42:55.961Z,4.33
2022-10-21T09:45:39.312Z,5.03
2022-10-21T09:48:19.728Z,4.83
2022-10-21T09:51:09.977Z,8.33
2022-10-21T09:53:53.635Z,4.17
2022-10-21T09:56:24.042Z,3.63
2022-10-21T09:59:07.535Z,6.47
2022-10-21T10:01:36.763Z,1.83
2022-10-21T10:04:21.056Z,4.10
2022-10-21T10:06:47.730Z,4.13
2022-10-21T10:09:25.962Z,1.77
2022-10-21T10:12:01.007Z,4.57
2022-10-21T10:14:29.180Z,3.90
2022-10-21T10:16:58.024Z,4.40
2022-10-21T10:19:28.089Z,3.23
2022-10-21T10:22:16.178Z,4.07
2022-10-21T10:24:44.001Z,2.80
2022-10-21T10:27:26.686Z,4.40
2022-10-21T10:29:57.448Z,1.93
2022-10-21T10:32:28.862Z,2.67
2022-10-21T10:35:05.268Z,4.57
2022-10-21T10:37:36.181Z,3.10
2022-10-21T10:40:09.037Z,5.93
2022-10-21T10:42:41.854Z,3.97
2022-10-21T10:45:19.588Z,3.57
2022-10-21T10:47:55.711Z,4.23
2022-10-21T10:50:37.514Z,1.10
2022-10-21T10:53:25.916Z,1.47
2022-10-21T10:56:34.193Z,1.37
2022-10-21T10:59:16.489Z,3.00
2022-10-21T11:01:51.687Z,2.03
2022-10-21T11:04:30.834Z,4.77
2022-10-21T11:07:07.870Z,1.03
2022-10-21T11:09:34.698Z,1.75
2022-10-21T11:12:06.061Z,12.77
2022-10-21T11:14:32.617Z,2.80
2022-10-21T11:17:18.687Z,0.70
2022-10-21T11:20:28.116Z,1.75
2022-10-21T11:25:59.780Z,1.02
2022-10-21T11:28:31.607Z,0.50
2022-10-21T11:31:43.884Z,1.08
2022-10-21T11:34:46.159Z,1.17
2022-10-21T11:37:33.906Z,0.90
2022-10-21T11:40:19.404Z,0.55
2022-10-21T11:42:51.407Z,0.75
2022-10-21T11:45:17.902Z,0.30
2022-10-21T11:48:04.037Z,1.77
2022-10-21T11:50:43.897Z,0.65
2022-10-21T11:53:26.056Z,0.50
2022-10-21T11:56:53.996Z,4.03
2022-10-21T11:59:38.459Z,2.05
2022-10-21T12:02:18.705Z,0.57
2022-10-21T12:05:02.396Z,0.63
2022-10-21T12:07:55.654Z,0.60
2022-10-21T12:10:36.253Z,0.68
2022-10-21T12:13:11.880Z,0.93
2022-10-21T12:15:46.431Z,1.08
2022-10-21T12:18:20.001Z,0.63
2022-10-21T12:20:49.493Z,3.92
2022-10-21T12:23:20.045Z,0.70
2022-10-21T12:26:21.379Z,1.05
2022-10-21T12:28:53.809Z,0.75
2022-10-21T12:31:48.909Z,3.70
2022-10-21T12:34:15.901Z,1.23
2022-10-21T12:36:46.532Z,1.13
2022-10-21T12:39:33.143Z,1.85
2022-10-21T12:42:10.742Z,1.38
2022-10-21T12:44:39.226Z,0.75
2022-10-21T12:47:28.870Z,1.55
2022-10-21T12:50:13.790Z,0.80
2022-10-21T12:52:42.454Z,1.35
2022-10-21T12:55:25.559Z,2.25
2022-10-21T12:58:02.777Z,1.05
2022-10-21T13:00:29.266Z,0.50
2022-10-21T13:03:03.681Z,0.63
2022-10-21T13:05:39.420Z,1.35
2022-10-21T13:08:22.685Z,2.42
2022-10-21T13:11:04.676Z,0.75
2022-10-21T13:13:41.785Z,2.50
2022-10-21T13:16:20.806Z,0.63
2022-10-21T13:19:26.151Z,2.47
2022-10-21T13:22:10.986Z,4.38
2022-10-21T13:24:38.450Z,1.00
2022-10-21T13:27:27.051Z,3.92
2022-10-21T13:29:54.856Z,0.85
2022-10-21T13:32:25.790Z,2.63
2022-10-21T13:35:07.432Z,1.55
2022-10-21T13:37:38.677Z,2.30
2022-10-21T13:40:16.693Z,1.20
2022-10-21T13:42:46.687Z,1.02
2022-10-21T13:45:34.116Z,3.35
2022-10-21T13:48:13.921Z,1.25
2022-10-21T13:50:43.331Z,1.42
2022-10-21T13:53:26.529Z,0.55
2022-10-21T13:55:54.763Z,3.83
2022-10-21T13:58:22.726Z,2.20
2022-10-21T14:00:49.592Z,1.38
2022-10-21T14:03:21.539Z,1.30
2022-10-21T14:05:51.981Z,1.23
2022-10-21T14:08:26.870Z,0.70
2022-10-21T14:10:56.324Z,2.90
2022-10-21T14:13:28.684Z,1.63
2022-10-21T14:15:56.171Z,0.88
2022-10-21T14:18:38.166Z,0.90
2022-10-21T14:21:06.327Z,0.63
2022-10-21T14:23:34.260Z,3.33
2022-10-21T14:26:08.934Z,2.78
2022-10-21T14:28:36.998Z,1.95
2022-10-21T14:33:45.043Z,1.27
2022-10-21T14:36:22.516Z,2.63
2022-10-21T14:39:03.594Z,2.03
2022-10-21T14:41:39.682Z,1.73
2022-10-21T14:44:12.406Z,2.47
2022-10-21T14:46:44.446Z,1.83
2022-10-21T14:49:30.867Z,1.60
2022-10-21T14:52:04.370Z,1.60
2022-10-21T14:54:53.841Z,1.50
2022-10-21T14:57:44.451Z,2.50
2022-10-21T15:00:41.546Z,1.35
2022-10-21T15:03:10.623Z,2.70
2022-10-21T15:05:47.881Z,1.95
2022-10-21T15:08:21.459Z,1.98
2022-10-21T15:10:57.150Z,2.53
2022-10-21T15:13:25.725Z,1.77
2022-10-21T15:15:54.575Z,1.10
2022-10-21T15:18:41.145Z,1.45
2022-10-21T15:21:13.557Z,1.08
2022-10-21T15:23:43.349Z,1.90
2022-10-21T15:26:37.696Z,2.70
2022-10-21T15:29:20.730Z,1.40
2022-10-21T15:31:47.699Z,2.15
2022-10-21T15:34:15.981Z,0.55
2022-10-21T15:36:43.919Z,2.13
2022-10-21T15:39:11.545Z,2.45
2022-10-21T15:41:39.040Z,1.58
2022-10-21T15:44:15.287Z,1.55
2022-10-21T15:46:46.322Z,1.77
2022-10-21T15:49:17.826Z,1.33
2022-10-21T15:51:44.434Z,2.20
2022-10-21T15:54:10.969Z,1.40
2022-10-21T15:56:37.894Z,1.27
2022-10-21T15:59:04.981Z,0.50
2022-10-21T16:01:31.609Z,2.13
2022-10-21T16:03:58.190Z,2.53
2022-10-21T16:06:24.736Z,1.87
2022-10-21T16:08:52.931Z,1.30
2022-10-21T16:11:29.694Z,2.93
2022-10-21T16:14:09.863Z,1.70
2022-10-21T16:16:46.163Z,4.37
2022-10-21T16:19:13.635Z,0.80
2022-10-21T16:21:40.630Z,4.03
2022-10-21T16:24:07.714Z,5.50
2022-10-21T16:26:45.320Z,2.77
2022-10-21T16:31:51.982Z,2.97
2022-10-21T16:37:05.873Z,2.10
2022-10-21T16:39:32.401Z,1.10
2022-10-21T16:41:58.917Z,3.23
2022-10-21T16:44:25.489Z,9.13
2022-10-21T16:46:54.884Z,1.70
2022-10-21T16:49:25.387Z,4.27
2022-10-21T16:51:53.154Z,3.57
2022-10-21T16:54:22.371Z,1.40
2022-10-21T16:56:51.000Z,4.60
2022-10-21T16:59:19.986Z,2.73
2022-10-21T17:01:46.569Z,2.27
2022-10-21T17:04:14.539Z,4.07
2022-10-21T17:06:41.493Z,1.60
2022-10-21T17:09:08.381Z,4.10
2022-10-21T17:11:37.260Z,3.17
2022-10-21T17:14:05.945Z,4.63
2022-10-21T17:16:32.908Z,6.63
2022-10-21T17:18:59.577Z,4.37
2022-10-21T17:21:29.008Z,1.00
2022-10-21T17:23:57.083Z,3.77
2022-10-21T17:26:24.144Z,6.33
2022-10-21T17:28:50.763Z,3.10
2022-10-21T17:31:23.167Z,3.70
2022-10-21T17:33:50.746Z,6.33
2022-10-21T17:36:18.665Z,5.03
2022-10-21T17:38:45.480Z,4.47
2022-10-21T17:41:14.762Z,6.20
2022-10-21T17:43:41.424Z,2.60
2022-10-21T17:46:09.573Z,2.90
2022-10-21T17:48:36.096Z,3.13
2022-10-21T17:51:02.626Z,4.30
2022-10-21T17:53:30.705Z,7.07
2022-10-21T17:56:05.595Z,3.20
2022-10-21T17:58:32.969Z,3.70
2022-10-21T18:00:59.566Z,3.87
2022-10-21T18:03:28.561Z,4.83
2022-10-21T18:05:56.055Z,5.33
2022-10-21T18:08:23.213Z,3.40
2022-10-21T18:10:57.953Z,3.57
2022-10-21T18:13:28.096Z,4.77
2022-10-21T18:15:55.666Z,8.63
2022-10-21T18:18:23.132Z,20.90
2022-10-21T18:20:49.688Z,8.30
2022-10-21T18:23:21.025Z,4.60
2022-10-21T18:25:48.034Z,4.47
2022-10-21T18:28:17.277Z,9.53
2022-10-21T18:30:44.617Z,3.60
2022-10-21T18:33:11.227Z,9.63
2022-10-21T18:35:37.980Z,20.37
2022-10-21T18:38:04.844Z,9.20
2022-10-21T18:40:33.332Z,13.93
2022-10-21T18:43:05.118Z,6.40
2022-10-21T18:45:32.005Z,10.73
2022-10-21T18:47:58.591Z,24.73
2022-10-21T18:50:25.150Z,17.03
2022-10-21T18:52:51.723Z,12.30
2022-10-21T18:55:18.828Z,17.23
2022-10-21T18:57:45.359Z,8.97
2022-10-21T19:00:15.065Z,8.67
2022-10-21T19:02:43.685Z,5.83
2022-10-21T19:05:13.610Z,2.70
2022-10-21T19:07:40.421Z,4.63
2022-10-21T19:10:08.642Z,56.37
2022-10-21T19:12:37.893Z,7.87
2022-10-21T19:15:06.010Z,2.67
2022-10-21T19:17:32.659Z,2.87
2022-10-21T19:20:00.722Z,3.47
2022-10-21T19:22:31.395Z,6.97
2022-10-21T19:24:57.926Z,4.57
2022-10-21T19:27:24.807Z,1.87
2022-10-21T19:29:52.590Z,4.10
2022-10-21T19:32:19.297Z,3.27
2022-10-21T19:34:45.850Z,5.07
2022-10-21T19:37:13.193Z,6.80
2022-10-21T19:39:39.798Z,6.00
2022-10-21T19:42:06.355Z,8.77
2022-10-21T19:44:32.921Z,2.53
2022-10-21T19:46:59.475Z,3.77
2022-10-21T19:49:26.010Z,3.50
2022-10-21T19:51:52.575Z,4.27
2022-10-21T19:54:19.126Z,1.40
2022-10-21T19:56:45.698Z,3.93
2022-10-21T19:59:12.300Z,1.33
2022-10-21T20:01:39.150Z,2.20
2022-10-21T20:04:06.378Z,4.23
2022-10-21T20:06:35.805Z,6.03
2022-10-21T20:09:09.044Z,3.90
2022-10-21T20:11:36.582Z,3.60
2022-10-21T20:14:04.178Z,6.07
2022-10-21T20:16:33.533Z,4.80
2022-10-21T20:19:01.913Z,2.77
2022-10-21T20:21:30.665Z,6.40
2022-10-21T20:23:58.550Z,2.83
2022-10-21T20:26:25.503Z,3.33
2022-10-21T20:28:52.686Z,3.87
2022-10-21T20:31:19.342Z,2.37
2022-10-21T20:33:51.376Z,1.77
2022-10-21T20:36:22.324Z,9.20
2022-10-21T20:38:50.626Z,7.80
2022-10-21T20:41:23.066Z,3.30
2022-10-21T20:43:50.973Z,3.10
2022-10-21T20:46:19.464Z,5.33
2022-10-21T20:48:48.288Z,2.90
2022-10-21T20:51:23.892Z,1.77
2022-10-21T20:53:55.518Z,4.80
2022-10-21T20:56:25.097Z,4.23
2022-10-21T20:58:51.659Z,4.10
2022-10-21T21:01:22.230Z,4.90
2022-10-21T21:03:50.102Z,5.90
2022-10-21T21:06:16.971Z,7.70
2022-10-21T21:08:48.997Z,6.53
2022-10-21T21:11:25.114Z,5.83
2022-10-21T21:13:51.654Z,4.20
2022-10-21T21:16:21.517Z,5.20
2022-10-21T21:19:05.549Z,3.93
2022-10-21T21:21:35.051Z,4.87
2022-10-21T21:24:03.015Z,5.03
2022-10-21T21:26:35.803Z,4.07
2022-10-21T21:29:02.996Z,4.60
2022-10-21T21:31:30.900Z,4.57
2022-10-21T21:33:57.903Z,4.00
2022-10-21T21:36:25.234Z,7.60
2022-10-21T21:38:53.930Z,7.10
2022-10-21T21:41:22.290Z,5.90
2022-10-21T21:43:50.512Z,4.53
2022-10-21T21:46:23.457Z,10.03
2022-10-21T21:48:56.110Z,6.87
2022-10-21T21:51:27.422Z,6.70
2022-10-21T21:53:55.363Z,5.17
2022-10-21T21:56:22.947Z,3.70
2022-10-21T21:58:50.975Z,3.23
2022-10-21T22:01:23.115Z,8.53
2022-10-21T22:03:51.661Z,5.03
2022-10-21T22:06:20.516Z,7.50
2022-10-21T22:08:47.576Z,5.10
2022-10-21T22:11:17.493Z,6.53
2022-10-21T22:13:44.325Z,10.13
2022-10-21T22:16:12.643Z,8.13
2022-10-21T22:18:39.638Z,4.77
2022-10-21T22:21:08.791Z,5.90
2022-10-21T22:23:39.005Z,8.03
2022-10-21T22:26:07.390Z,3.23
2022-10-21T22:28:35.010Z,3.73
2022-10-21T22:31:07.429Z,7.47
2022-10-21T22:33:34.581Z,6.50
2022-10-21T22:36:01.728Z,9.60
2022-10-21T22:38:29.331Z,5.37
2022-10-21T22:40:57.932Z,7.10
2022-10-21T22:43:26.070Z,6.43
2022-10-21T22:45:55.219Z,5.67
2022-10-21T22:48:27.848Z,9.03
2022-10-21T22:50:54.674Z,7.93
2022-10-21T22:53:21.571Z,4.67
2022-10-21T22:55:48.254Z,7.83
2022-10-21T22:58:20.057Z,9.13
2022-10-21T23:00:47.921Z,10.63
2022-10-21T23:03:15.866Z,9.07
2022-10-21T23:05:42.486Z,5.93
2022-10-21T23:08:09.644Z,7.27
2022-10-21T23:10:36.607Z,9.97
2022-10-21T23:13:05.906Z,7.17
2022-10-21T23:15:34.051Z,7.03
2022-10-21T23:18:00.954Z,10.20
2022-10-21T23:20:28.143Z,6.13
2022-10-21T23:22:54.771Z,8.17
2022-10-21T23:25:22.839Z,9.60
2022-10-21T23:27:50.047Z,10.60
2022-10-21T23:30:16.866Z,9.20
2022-10-21T23:32:43.489Z,14.73
2022-10-21T23:35:10.279Z,10.57
2022-10-21T23:37:37.075Z,8.10
2022-10-21T23:40:05.039Z,7.83
2022-10-21T23:42:31.564Z,7.03
2022-10-21T23:44:58.183Z,11.00
2022-10-21T23:47:24.767Z,9.40
2022-10-21T23:49:51.372Z,10.30
2022-10-21T23:52:18.100Z,11.87
2022-10-21T23:54:44.673Z,7.50
2022-10-21T23:57:11.351Z,8.13
2022-10-21T23:59:37.882Z,9.37
